Time;durP1;ratioP1;P1;durP2;ratioP2;P2;SDS_P1;SDS_P2;PMS_P1;PMS_P2;Temp;Humidity;BMP_temperature;BMP_pressure;BME280_temperature;BME280_humidity;BME280_pressure;Samples;Min_cycle;Max_cycle;Signal;HPM_P1;HPM_P2
2023/03/26 00:00:17;;;;;;;;;;;;;;;10.51;64.90;97810.52;67603;1281;1016450;-62
2023/03/26 00:03:40;;;;;;;20.30;4.90;;;;;;;10.53;64.63;97809.50;67609;1281;1018406;-61
2023/03/26 00:06:43;;;;;;;19.00;4.90;;;;;;;10.50;65.31;97814.83;67627;1281;1017137;-61
2023/03/26 00:09:45;;;;;;;18.90;4.70;;;;;;;10.57;64.86;97814.77;67600;1281;1016496;-61
2023/03/26 00:12:48;;;;;;;19.00;4.60;;;;;;;10.64;64.82;97815.02;67577;1281;1016229;-60
2023/03/26 00:15:51;;;;;;;19.70;4.60;;;;;;;10.69;64.38;97815.16;67584;1281;1016027;-61
2023/03/26 00:18:54;;;;;;;20.50;4.50;;;;;;;10.67;64.41;97816.52;67582;1281;1016434;-60
2023/03/26 00:21:56;;;;;;;16.00;4.00;;;;;;;10.66;64.68;97811.36;67512;1281;1016320;-61
2023/03/26 00:25:00;;;;;;;17.30;4.40;;;;;;;10.66;64.79;97810.98;67631;1281;1015999;-60
2023/03/26 00:28:02;;;;;;;17.90;4.20;;;;;;;10.67;64.65;97809.32;67628;1281;1016477;-60
2023/03/26 00:31:05;;;;;;;17.60;4.00;;;;;;;10.69;64.21;97805.88;67628;1281;1016491;-61
2023/03/26 00:34:09;;;;;;;18.00;4.80;;;;;;;10.67;64.07;97809.17;67614;1281;1017572;-61
2023/03/26 00:37:13;;;;;;;17.50;4.10;;;;;;;10.66;64.04;97799.64;67593;1281;1016451;-61
2023/03/26 00:40:16;;;;;;;18.30;4.60;;;;;;;10.64;64.05;97795.59;67594;1281;1016612;-61
2023/03/26 00:43:18;;;;;;;19.40;4.10;;;;;;;10.72;63.42;97790.55;67623;1281;1018788;-60
2023/03/26 00:46:21;;;;;;;14.80;3.80;;;;;;;10.66;63.82;97787.95;67627;1281;1016437;-61
2023/03/26 00:49:25;;;;;;;14.30;3.60;;;;;;;10.66;64.06;97785.95;67561;1281;1016475;-61
2023/03/26 00:52:28;;;;;;;16.50;4.00;;;;;;;10.76;63.45;97781.70;67615;1281;1016198;-61
2023/03/26 00:55:30;;;;;;;16.10;3.50;;;;;;;10.74;63.55;97775.41;67626;1281;1017104;-61
2023/03/26 00:58:33;;;;;;;15.40;3.80;;;;;;;10.57;63.81;97772.30;67637;1281;1016214;-60
2023/03/26 01:01:35;;;;;;;18.70;4.10;;;;;;;10.49;63.95;97775.04;67617;1281;1016352;-61
2023/03/26 01:04:38;;;;;;;15.70;3.40;;;;;;;10.49;64.01;97772.27;67583;1281;1016333;-61
2023/03/26 01:07:41;;;;;;;15.30;3.50;;;;;;;10.47;64.09;97768.27;67569;1281;1018201;-61
2023/03/26 01:10:49;;;;;;;11.80;3.20;;;;;;;10.45;64.36;97767.81;67596;1281;1016385;-61
2023/03/26 01:13:52;;;;;;;16.60;3.90;;;;;;;10.50;63.85;97764.99;67590;1281;1016471;-60
2023/03/26 01:16:54;;;;;;;13.30;3.60;;;;;;;10.59;63.86;97770.77;67579;1281;1016219;-61
2023/03/26 01:19:57;;;;;;;16.70;3.90;;;;;;;10.60;63.56;97768.83;65067;1281;6390755;-60
2023/03/26 01:23:00;;;;;;;15.40;3.30;;;;;;;10.67;63.86;97770.86;67629;1281;1016255;-60
2023/03/26 01:26:10;;;;;;;15.70;3.70;;;;;;;10.69;64.15;97770.16;67621;1281;1016146;-61
2023/03/26 01:29:13;;;;;;;16.00;3.70;;;;;;;10.73;63.98;97764.63;67591;1281;1016408;-60
2023/03/26 01:32:15;;;;;;;14.30;3.20;;;;;;;10.76;64.18;97753.94;67638;1281;1016491;-60
2023/03/26 01:35:18;;;;;;;13.60;3.20;;;;;;;10.95;63.63;97751.73;67623;1281;1016327;-60
2023/03/26 01:38:21;;;;;;;16.00;3.90;;;;;;;10.93;63.39;97748.85;67570;1281;1018481;-61
2023/03/26 01:41:24;;;;;;;16.50;3.80;;;;;;;10.96;63.72;97757.77;67592;1281;1016117;-61
2023/03/26 01:44:26;;;;;;;15.90;3.60;;;;;;;10.93;63.68;97758.20;67608;1281;1016144;-61
2023/03/26 01:47:29;;;;;;;14.30;3.50;;;;;;;10.86;63.95;97757.83;67587;1281;1015785;-61
2023/03/26 01:50:31;;;;;;;12.60;3.40;;;;;;;10.84;63.98;97753.47;67587;1281;1016308;-60
2023/03/26 01:53:33;;;;;;;16.20;3.80;;;;;;;10.87;63.98;97753.08;67615;1281;1016243;-61
2023/03/26 01:56:36;;;;;;;14.50;3.60;;;;;;;10.82;63.93;97750.46;67659;1281;1016511;-61
2023/03/26 01:59:40;;;;;;;13.40;3.50;;;;;;;10.90;64.08;97750.71;67601;1259;1016322;-60
2023/03/26 02:02:42;;;;;;;23.50;4.90;;;;;;;10.97;64.01;97742.98;67602;1281;1016350;-60
2023/03/26 02:05:45;;;;;;;13.60;3.20;;;;;;;10.99;63.79;97743.71;67555;1281;1016326;-61
2023/03/26 02:08:47;;;;;;;15.30;3.20;;;;;;;10.98;63.96;97741.16;67599;1281;1016339;-61
2023/03/26 02:11:50;;;;;;;16.50;3.60;;;;;;;10.93;63.70;97738.79;67627;1281;1016931;-60
2023/03/26 02:14:52;;;;;;;13.80;3.30;;;;;;;10.90;64.13;97734.78;67632;1281;1016244;-61
2023/03/26 02:17:54;;;;;;;15.40;3.50;;;;;;;11.01;64.02;97736.41;67634;1281;1016198;-61
2023/03/26 02:20:57;;;;;;;16.50;3.60;;;;;;;10.96;63.84;97738.31;67589;1281;1017026;-61
2023/03/26 02:24:02;;;;;;;17.40;3.50;;;;;;;11.01;64.13;97739.48;67541;1281;1019268;-61
2023/03/26 02:27:06;;;;;;;15.70;3.10;;;;;;;11.01;63.92;97741.13;67552;1281;1016255;-60
2023/03/26 02:30:09;;;;;;;14.60;3.40;;;;;;;10.95;64.26;97736.87;67592;1281;1016524;-61
2023/03/26 02:33:14;;;;;;;18.70;4.60;;;;;;;11.02;64.17;97741.58;67644;1281;1016318;-60
2023/03/26 02:36:18;;;;;;;18.30;5.30;;;;;;;11.10;63.96;97740.59;67648;1281;1016275;-61
2023/03/26 02:39:20;;;;;;;18.40;4.30;;;;;;;11.14;63.84;97738.97;67597;1281;1016321;-60
2023/03/26 02:42:23;;;;;;;19.30;4.20;;;;;;;11.19;63.65;97737.01;67607;1281;1015967;-61
2023/03/26 02:45:25;;;;;;;14.70;3.70;;;;;;;11.21;63.65;97739.65;67575;1281;1016388;-60
2023/03/26 02:48:27;;;;;;;17.20;4.20;;;;;;;11.25;63.62;97738.27;67617;1281;1016489;-60
2023/03/26 02:51:33;;;;;;;15.00;4.00;;;;;;;11.27;63.49;97735.86;67625;1281;1017167;-61
2023/03/26 02:54:36;;;;;;;14.80;3.50;;;;;;;11.32;63.34;97734.56;67647;1281;1016432;-61
2023/03/26 02:57:38;;;;;;;14.50;3.20;;;;;;;11.37;62.90;97734.17;67652;1281;1016298;-61
2023/03/26 03:00:41;;;;;;;13.40;3.20;;;;;;;11.29;63.27;97730.59;67589;1281;1016412;-61
2023/03/26 03:03:46;;;;;;;16.40;4.10;;;;;;;11.27;63.51;97729.02;67540;1281;1016596;-61
2023/03/26 03:06:56;;;;;;;13.00;3.20;;;;;;;11.34;63.49;97730.20;67513;1281;1016570;-61
2023/03/26 03:10:01;;;;;;;12.30;3.20;;;;;;;11.42;62.85;97732.17;67611;1281;1016411;-61
2023/03/26 03:13:06;;;;;;;11.30;3.10;;;;;;;11.48;62.37;97731.05;67573;1281;1016494;-61
2023/03/26 03:16:08;;;;;;;13.00;3.30;;;;;;;11.43;62.75;97731.79;67633;1258;1016006;-62
2023/03/26 03:19:11;;;;;;;15.60;3.60;;;;;;;11.48;62.74;97736.61;67626;1281;1016725;-61
2023/03/26 03:22:13;;;;;;;13.90;3.40;;;;;;;11.56;62.26;97732.61;67631;1281;1016377;-61
2023/03/26 03:25:16;;;;;;;17.30;3.40;;;;;;;11.47;62.41;97741.75;67591;1281;1016425;-61
2023/03/26 03:28:19;;;;;;;11.80;3.30;;;;;;;11.53;62.17;97735.00;67627;1281;1016471;-61
2023/03/26 03:31:21;;;;;;;12.60;3.80;;;;;;;11.50;62.60;97733.98;67615;1281;1016432;-61
2023/03/26 03:34:24;;;;;;;14.00;3.50;;;;;;;11.56;62.34;97737.67;67595;1281;1015818;-60
2023/03/26 03:37:26;;;;;;;;;;;;;;;11.53;62.32;97731.84;67633;1281;1016398;-61
2023/03/26 03:40:29;;;;;;;11.40;3.00;;;;;;;11.56;62.25;97731.39;67610;1281;1016393;-60
2023/03/26 03:43:32;;;;;;;9.60;2.80;;;;;;;11.57;62.08;97737.09;67626;1281;1016444;-60
2023/03/26 03:46:34;;;;;;;12.60;3.00;;;;;;;11.51;62.35;97731.66;67611;1281;1016902;-61
2023/03/26 03:49:37;;;;;;;13.90;3.00;;;;;;;11.41;62.53;97729.63;67624;1281;1016237;-60
2023/03/26 03:52:39;;;;;;;14.50;3.30;;;;;;;11.39;62.95;97734.77;67641;1281;1016997;-61
2023/03/26 03:55:41;;;;;;;12.60;2.90;;;;;;;11.37;63.20;97731.02;67616;1281;1016497;-62
2023/03/26 03:58:45;;;;;;;11.90;3.30;;;;;;;11.38;63.30;97732.52;67585;1281;1017146;-61
2023/03/26 04:01:49;;;;;;;12.70;3.50;;;;;;;11.47;63.14;97732.52;67598;1281;1017898;-60
2023/03/26 04:04:52;;;;;;;14.60;3.40;;;;;;;11.43;63.34;97730.94;67618;1281;1016297;-60
2023/03/26 04:07:54;;;;;;;15.60;4.10;;;;;;;11.36;63.68;97725.50;67599;1281;1016183;-60
2023/03/26 04:10:57;;;;;;;15.70;3.50;;;;;;;11.43;63.48;97726.52;67645;1281;1016262;-60
2023/03/26 04:14:01;;;;;;;13.20;3.40;;;;;;;11.38;63.85;97721.48;67615;1281;1016934;-60
2023/03/26 04:17:04;;;;;;;14.20;3.40;;;;;;;11.27;64.39;97719.77;67607;1281;1016305;-60
2023/03/26 04:20:09;;;;;;;14.50;3.50;;;;;;;11.24;64.36;97715.83;67584;1281;1019855;-60
2023/03/26 04:23:13;;;;;;;15.20;3.10;;;;;;;11.15;64.77;97714.05;67608;1281;1016363;-60
2023/03/26 04:26:15;;;;;;;11.60;3.30;;;;;;;11.18;64.89;97716.84;67631;1281;1017126;-61
2023/03/26 04:29:20;;;;;;;15.00;3.20;;;;;;;11.13;64.79;97708.15;67582;1281;1019893;-61
2023/03/26 04:32:23;;;;;;;10.30;2.90;;;;;;;11.15;65.31;97707.42;67534;1281;1016593;-61
2023/03/26 04:35:25;;;;;;;14.70;3.00;;;;;;;11.16;65.07;97708.77;67619;1281;1016136;-60
2023/03/26 04:38:28;;;;;;;14.80;3.60;;;;;;;11.08;65.45;97707.14;67606;1281;1016751;-61
2023/03/26 04:41:31;;;;;;;14.40;3.50;;;;;;;11.05;65.85;97707.17;67643;1281;1016521;-61
2023/03/26 04:44:34;;;;;;;13.60;3.20;;;;;;;11.01;66.25;97717.30;67637;1281;1018246;-61
2023/03/26 04:47:37;;;;;;;15.30;3.40;;;;;;;11.05;65.91;97708.05;67592;1281;1016324;-60
2023/03/26 04:50:40;;;;;;;14.90;3.30;;;;;;;11.07;65.93;97705.64;67627;1257;1016510;-61
2023/03/26 04:53:43;;;;;;;10.30;2.60;;;;;;;11.16;65.70;97712.27;67609;1281;1016465;-60
2023/03/26 04:56:45;;;;;;;17.20;3.30;;;;;;;11.29;65.51;97710.50;67596;1281;1016412;-61
2023/03/26 04:59:48;;;;;;;17.10;3.10;;;;;;;11.28;65.84;97714.83;67608;1281;1016513;-60
2023/03/26 05:02:54;;;;;;;13.20;3.10;;;;;;;11.24;65.66;97714.74;67603;1281;1016439;-61
2023/03/26 05:05:58;;;;;;;16.90;3.70;;;;;;;11.27;65.82;97711.70;67627;1281;1015956;-61
2023/03/26 05:09:00;;;;;;;19.00;4.00;;;;;;;11.32;65.32;97711.67;67614;1281;1016719;-60
2023/03/26 05:12:02;;;;;;;15.00;3.40;;;;;;;11.28;65.73;97711.60;67601;1281;1016525;-61
2023/03/26 05:15:05;;;;;;;12.90;3.00;;;;;;;11.26;65.93;97709.70;67603;1281;1016517;-60
2023/03/26 05:18:08;;;;;;;12.70;2.90;;;;;;;11.22;66.03;97714.77;67644;1281;1017195;-60
2023/03/26 05:21:10;;;;;;;11.60;3.10;;;;;;;11.25;66.11;97710.98;67623;1281;1016322;-61
2023/03/26 05:24:13;;;;;;;;;;;;;;;11.32;65.91;97710.80;67605;1281;1017710;-60
2023/03/26 05:27:16;;;;;;;16.10;3.80;;;;;;;11.33;65.60;97716.13;67618;1281;1016398;-61
2023/03/26 05:30:18;;;;;;;14.00;3.90;;;;;;;11.28;66.09;97714.08;67647;1281;1016451;-60
2023/03/26 05:33:21;;;;;;;18.30;4.10;;;;;;;11.26;66.41;97711.61;67603;1281;1016551;-60
2023/03/26 05:36:23;;;;;;;21.60;5.10;;;;;;;11.35;66.23;97718.59;67581;1281;1018466;-61
2023/03/26 05:39:26;;;;;;;17.20;4.00;;;;;;;11.36;66.21;97713.75;67621;1281;1016244;-61
2023/03/26 05:42:28;;;;;;;19.60;4.20;;;;;;;11.38;66.73;97719.23;67649;1281;1016482;-60
2023/03/26 05:45:31;;;;;;;17.90;4.00;;;;;;;11.45;66.71;97714.64;67553;1281;1016248;-60
2023/03/26 05:48:33;;;;;;;17.60;4.00;;;;;;;11.52;66.30;97713.52;67607;1281;1015963;-60
2023/03/26 05:51:35;;;;;;;14.80;3.20;;;;;;;11.42;66.69;97719.73;67634;1281;1019089;-60
2023/03/26 05:54:38;;;;;;;24.40;6.30;;;;;;;11.42;66.99;97710.28;67648;1281;1016498;-61
2023/03/26 05:57:41;;;;;;;19.30;4.50;;;;;;;11.43;67.04;97714.05;67592;1281;1017192;-60
2023/03/26 06:00:47;;;;;;;;;;;;;;;11.42;67.19;97713.35;67596;1281;1016488;-60
2023/03/26 06:03:50;;;;;;;18.50;3.60;;;;;;;11.46;67.21;97722.23;67560;1281;1016186;-60
2023/03/26 06:06:53;;;;;;;11.50;3.30;;;;;;;11.40;67.42;97727.59;67626;1281;1016459;-60
2023/03/26 06:09:55;;;;;;;17.00;3.80;;;;;;;11.37;67.50;97724.05;67616;1281;1016215;-61
2023/03/26 06:12:57;;;;;;;16.80;3.70;;;;;;;11.41;68.39;97727.68;67572;1281;1016075;-61
2023/03/26 06:16:00;;;;;;;15.00;3.60;;;;;;;11.43;68.35;97725.80;67608;1281;1016746;-61
2023/03/26 06:19:02;;;;;;;16.80;3.50;;;;;;;11.40;68.70;97735.39;67639;1281;1016893;-60
2023/03/26 06:22:05;;;;;;;18.80;4.00;;;;;;;11.33;69.13;97746.45;67682;1281;1016395;-60
2023/03/26 06:25:07;;;;;;;;;;;;;;;11.21;70.49;97742.63;67554;1281;1016503;-61
2023/03/26 06:28:10;;;;;;;15.90;3.70;;;;;;;11.17;70.99;97735.29;67601;1281;1016430;-60
2023/03/26 06:31:12;;;;;;;16.00;3.30;;;;;;;11.15;71.60;97734.93;67594;1281;1017019;-61
2023/03/26 06:34:15;;;;;;;18.80;3.80;;;;;;;11.12;71.36;97729.89;67617;1281;1016477;-60
2023/03/26 06:37:17;;;;;;;15.10;3.30;;;;;;;11.21;71.66;97727.81;67641;1281;1015931;-60
2023/03/26 06:40:19;;;;;;;16.20;3.30;;;;;;;11.27;71.32;97730.95;67611;1281;1016570;-60
2023/03/26 06:43:22;;;;;;;13.30;3.00;;;;;;;11.30;71.36;97726.70;67638;1281;1016440;-60
2023/03/26 06:46:24;;;;;;;19.20;3.90;;;;;;;11.41;70.50;97729.98;67662;1281;1016386;-60
2023/03/26 06:49:27;;;;;;;10.10;3.00;;;;;;;11.48;70.74;97726.46;67663;1281;1016376;-60
2023/03/26 06:52:29;;;;;;;11.50;3.10;;;;;;;11.61;69.76;97729.98;67669;1281;1016345;-60
2023/03/26 06:55:32;;;;;;;14.40;2.80;;;;;;;11.66;69.62;97731.15;67608;1281;1016403;-60
2023/03/26 06:58:34;;;;;;;13.60;3.30;;;;;;;11.70;69.13;97730.78;67584;1281;1016042;-60
2023/03/26 07:01:36;;;;;;;18.20;3.70;;;;;;;11.78;69.59;97724.36;67645;1281;1016509;-60
2023/03/26 07:04:39;;;;;;;13.60;3.10;;;;;;;11.95;68.66;97720.29;67665;1281;1016405;-60
2023/03/26 07:07:41;;;;;;;17.50;3.80;;;;;;;12.19;68.44;97729.50;67650;1281;1016518;-61
2023/03/26 07:10:44;;;;;;;18.60;4.00;;;;;;;12.62;69.85;97729.70;67599;1281;1016454;-60
2023/03/26 07:13:46;;;;;;;13.90;3.30;;;;;;;12.96;66.73;97727.08;67581;1281;1016421;-60
2023/03/26 07:16:49;;;;;;;18.60;3.70;;;;;;;13.07;66.17;97719.82;67660;1281;1016346;-60
2023/03/26 07:19:53;;;;;;;14.40;3.20;;;;;;;13.25;64.99;97710.89;67678;1281;1016884;-61
2023/03/26 07:22:55;;;;;;;14.50;3.20;;;;;;;13.49;64.66;97707.89;67670;1257;1016427;-61
2023/03/26 07:25:58;;;;;;;12.80;2.90;;;;;;;13.75;64.21;97696.93;67624;1281;1018174;-61
2023/03/26 07:29:00;;;;;;;12.70;3.10;;;;;;;13.69;63.10;97702.04;67600;1281;1016126;-60
2023/03/26 07:32:03;;;;;;;13.40;2.90;;;;;;;13.22;62.47;97701.25;67633;1281;1015645;-60
2023/03/26 07:35:06;;;;;;;11.40;2.80;;;;;;;12.70;63.60;97721.45;67643;1281;1016425;-60
2023/03/26 07:38:08;;;;;;;11.90;2.90;;;;;;;12.57;63.70;97734.73;67604;1281;1016262;-61
2023/03/26 07:41:11;;;;;;;12.10;3.10;;;;;;;12.37;64.98;97744.66;67648;1281;1016808;-61
2023/03/26 07:44:13;;;;;;;15.80;3.20;;;;;;;12.63;65.57;97737.85;67638;1281;1016773;-60
2023/03/26 07:47:16;;;;;;;15.10;2.90;;;;;;;12.60;65.06;97742.11;67587;1281;1016954;-60
2023/03/26 07:50:18;;;;;;;11.00;2.40;;;;;;;12.50;64.23;97739.33;67608;1281;1016493;-60
2023/03/26 07:53:21;;;;;;;15.00;3.40;;;;;;;12.48;63.50;97734.81;67622;1281;1016452;-61
2023/03/26 07:56:23;;;;;;;;;;;;;;;12.43;62.89;97736.77;67686;1281;1016472;-60
2023/03/26 07:59:25;;;;;;;12.00;3.50;;;;;;;12.28;61.57;97745.61;67640;1281;1016620;-60
2023/03/26 08:02:28;;;;;;;7.20;2.50;;;;;;;12.45;61.53;97734.88;67629;1281;1016769;-60
2023/03/26 08:05:31;;;;;;;10.00;2.60;;;;;;;12.45;59.88;97746.48;67666;1281;1016416;-60
2023/03/26 08:08:34;;;;;;;13.50;2.80;;;;;;;12.55;60.64;97737.19;67662;1281;1016480;-60
2023/03/26 08:11:37;;;;;;;12.00;2.40;;;;;;;12.66;59.62;97738.52;67682;1281;1016809;-60
2023/03/26 08:14:41;;;;;;;11.80;2.80;;;;;;;12.62;59.82;97742.70;67615;1281;1017229;-60
2023/03/26 08:17:43;;;;;;;14.40;3.20;;;;;;;12.78;60.29;97738.83;67685;1281;1019451;-60
2023/03/26 08:20:46;;;;;;;11.00;2.60;;;;;;;12.93;59.22;97743.49;67622;1281;1018015;-60
2023/03/26 08:23:49;;;;;;;12.10;2.60;;;;;;;13.02;59.03;97731.32;67610;1281;1016451;-60
2023/03/26 08:26:51;;;;;;;11.40;2.40;;;;;;;13.03;58.24;97731.25;67649;1281;1018686;-60
2023/03/26 08:29:54;;;;;;;7.50;2.00;;;;;;;12.98;58.01;97739.87;67686;1281;1016167;-60
2023/03/26 08:32:57;;;;;;;10.70;2.60;;;;;;;13.04;57.77;97738.16;67606;1281;1016479;-60
2023/03/26 08:35:59;;;;;;;10.00;2.00;;;;;;;13.14;57.52;97739.55;67591;1281;1016432;-60
2023/03/26 08:39:03;;;;;;;18.50;4.80;;;;;;;13.47;58.06;97717.55;67641;1281;1016456;-60
2023/03/26 08:42:06;;;;;;;8.60;2.00;;;;;;;13.68;56.30;97726.34;67645;1281;1016312;-60
2023/03/26 08:45:08;;;;;;;11.40;2.50;;;;;;;13.43;56.29;97727.15;67633;1281;1016349;-60
2023/03/26 08:48:11;;;;;;;10.30;2.30;;;;;;;13.51;56.21;97708.73;67643;1281;1015825;-60
2023/03/26 08:51:13;;;;;;;6.80;2.00;;;;;;;13.62;56.29;97723.54;67641;1281;1016618;-61
2023/03/26 08:54:15;;;;;;;8.20;2.00;;;;;;;13.63;55.34;97725.62;67635;1281;1019207;-60
2023/03/26 08:57:18;;;;;;;;;;;;;;;13.58;55.60;97718.14;67655;1281;1016405;-61
2023/03/26 09:00:21;;;;;;;10.00;2.40;;;;;;;14.06;56.45;97711.94;67664;1281;1016422;-61
2023/03/26 09:03:23;;;;;;;6.50;1.90;;;;;;;14.46;54.89;97707.91;67627;1281;1016147;-60
2023/03/26 09:06:26;;;;;;;;;;;;;;;13.92;54.00;97710.63;67650;1281;1016779;-61
2023/03/26 09:09:29;;;;;;;4.30;1.50;;;;;;;13.63;55.88;97704.63;67674;1281;1016556;-60
2023/03/26 09:12:32;;;;;;;10.80;2.10;;;;;;;13.57;56.04;97705.95;67614;1281;1017461;-60
2023/03/26 09:15:35;;;;;;;10.20;2.70;;;;;;;13.54;56.03;97703.15;67657;1281;1017597;-60
2023/03/26 09:18:38;;;;;;;;;;;;;;;13.29;56.56;97709.45;67637;1281;1016863;-60
2023/03/26 09:21:41;;;;;;;8.40;2.30;;;;;;;13.09;56.77;97723.15;67628;1281;1015972;-60
2023/03/26 09:24:44;;;;;;;8.10;2.10;;;;;;;13.09;56.77;97720.00;67631;1281;1016340;-60
2023/03/26 09:27:46;;;;;;;7.80;2.10;;;;;;;13.17;56.62;97707.70;67621;1281;1016501;-60
2023/03/26 09:30:49;;;;;;;8.40;1.90;;;;;;;13.08;55.72;97724.45;67676;1281;1016372;-60
2023/03/26 09:33:52;;;;;;;8.90;1.50;;;;;;;13.02;55.66;97720.42;67645;1281;1015956;-61
2023/03/26 09:36:56;;;;;;;6.10;1.70;;;;;;;13.05;55.10;97723.54;67646;1281;1016337;-60
2023/03/26 09:39:59;;;;;;;9.80;2.40;;;;;;;13.01;55.21;97722.09;67621;1281;1016078;-61
2023/03/26 09:43:01;;;;;;;11.40;2.20;;;;;;;13.14;55.51;97717.48;67672;1281;1017883;-60
2023/03/26 09:46:03;;;;;;;8.80;2.00;;;;;;;13.27;55.64;97715.45;67693;1281;1019328;-61
2023/03/26 09:49:06;;;;;;;8.00;1.90;;;;;;;13.35;56.00;97722.13;67652;1281;1016176;-61
2023/03/26 09:52:08;;;;;;;13.90;3.10;;;;;;;13.14;56.92;97717.61;67616;1281;1016481;-60
2023/03/26 09:55:10;;;;;;;10.50;2.20;;;;;;;13.15;57.05;97713.45;67608;1281;1016454;-61
2023/03/26 09:58:13;;;;;;;12.70;2.80;;;;;;;13.15;57.00;97716.31;67637;1281;1016279;-60
2023/03/26 10:01:15;;;;;;;9.00;2.40;;;;;;;13.28;56.80;97715.84;67658;1281;1016484;-60
2023/03/26 10:04:19;;;;;;;8.60;2.10;;;;;;;13.15;55.72;97734.56;67625;1281;1016344;-60
2023/03/26 10:07:21;;;;;;;12.80;2.90;;;;;;;13.04;56.45;97713.06;67660;1281;1016456;-61
2023/03/26 10:10:24;;;;;;;14.40;3.10;;;;;;;13.18;56.81;97713.08;67641;1281;1016544;-61
2023/03/26 10:13:26;;;;;;;8.50;2.50;;;;;;;13.31;56.08;97709.60;67608;1281;1016474;-61
2023/03/26 10:16:29;;;;;;;8.10;2.10;;;;;;;13.45;56.20;97698.37;67636;1281;1016406;-61
2023/03/26 10:19:33;;;;;;;10.20;2.70;;;;;;;13.58;55.32;97697.41;67641;1281;1016900;-60
2023/03/26 10:22:36;;;;;;;10.60;2.50;;;;;;;13.78;54.35;97705.57;67672;1281;1016486;-60
2023/03/26 10:25:39;;;;;;;10.00;2.50;;;;;;;13.71;54.00;97708.30;67581;1281;1016917;-61
2023/03/26 10:28:42;;;;;;;10.00;2.40;;;;;;;13.71;54.54;97695.16;67627;1281;1016439;-60
2023/03/26 10:31:45;;;;;;;12.20;2.80;;;;;;;13.87;54.62;97697.89;67615;1281;1018240;-60
2023/03/26 10:34:47;;;;;;;13.30;3.20;;;;;;;13.90;54.01;97693.63;67637;1281;1016411;-61
2023/03/26 10:37:50;;;;;;;13.20;2.90;;;;;;;13.94;54.00;97690.61;67662;1281;1016383;-61
2023/03/26 10:40:53;;;;;;;14.00;3.80;;;;;;;14.02;54.38;97691.43;67611;1281;1016350;-61
2023/03/26 10:43:55;;;;;;;14.10;3.10;;;;;;;14.06;53.82;97702.99;67607;1281;1016438;-61
2023/03/26 10:46:59;;;;;;;10.50;2.50;;;;;;;13.93;53.01;97702.10;67637;1281;1017979;-60
2023/03/26 10:50:02;;;;;;;8.30;2.10;;;;;;;13.88;52.80;97710.67;67626;1281;1016549;-60
2023/03/26 10:53:04;;;;;;;11.40;2.70;;;;;;;13.95;52.50;97698.98;67625;1281;1016187;-60
2023/03/26 10:56:09;;;;;;;10.20;2.10;;;;;;;14.08;53.34;97691.55;67599;1281;1018228;-61
2023/03/26 10:59:12;;;;;;;9.90;2.30;;;;;;;14.30;52.21;97683.40;67643;1281;1016388;-60
2023/03/26 11:02:14;;;;;;;10.90;2.10;;;;;;;14.62;50.48;97687.96;67614;1281;1016472;-61
2023/03/26 11:05:17;;;;;;;6.90;2.20;;;;;;;14.91;50.17;97688.31;67615;1281;1016419;-61
2023/03/26 11:08:19;;;;;;;10.00;1.90;;;;;;;15.15;47.89;97688.52;67644;1281;1016412;-60
2023/03/26 11:11:22;;;;;;;7.50;2.20;;;;;;;15.59;48.50;97684.83;67701;1281;1016662;-60
2023/03/26 11:14:24;;;;;;;13.90;3.40;;;;;;;16.03;48.23;97674.27;67660;1281;1015838;-61
2023/03/26 11:17:26;;;;;;;9.20;2.50;;;;;;;16.05;46.33;97667.37;67584;1281;1016356;-61
2023/03/26 11:20:29;;;;;;;6.70;2.10;;;;;;;15.56;45.91;97655.91;67563;1281;1016478;-61
2023/03/26 11:23:31;;;;;;;10.70;2.30;;;;;;;15.61;47.61;97644.52;67525;1281;1015793;-61
2023/03/26 11:26:34;;;;;;;10.10;2.40;;;;;;;15.56;46.62;97664.36;67628;1281;1019666;-61
2023/03/26 11:29:36;;;;;;;8.10;2.00;;;;;;;15.13;47.29;97657.66;67646;1281;1016220;-61
2023/03/26 11:32:39;;;;;;;;;;;;;;;14.84;47.73;97663.16;67648;1281;1016522;-61
2023/03/26 11:35:41;;;;;;;12.80;2.30;;;;;;;14.37;48.05;97684.65;67607;1281;1016358;-61
2023/03/26 11:38:44;;;;;;;14.60;3.20;;;;;;;14.18;49.63;97679.92;67622;1281;1016102;-61
2023/03/26 11:41:46;;;;;;;10.30;2.70;;;;;;;13.92;51.08;97684.48;67663;1281;1016146;-61
2023/03/26 11:44:48;;;;;;;11.80;2.90;;;;;;;13.68;52.48;97689.45;67648;1281;1016332;-60
2023/03/26 11:47:51;;;;;;;12.90;2.80;;;;;;;13.67;55.21;97697.10;67648;1257;1015998;-60
2023/03/26 11:50:54;;;;;;;9.10;2.00;;;;;;;13.57;57.60;97697.46;67592;1281;1016380;-60
2023/03/26 11:53:56;;;;;;;8.80;2.00;;;;;;;13.41;58.22;97702.05;67623;1281;1016291;-60
2023/03/26 11:56:59;;;;;;;;;;;;;;;13.48;58.07;97682.51;67648;1281;1016445;-60
2023/03/26 12:00:03;;;;;;;8.40;1.90;;;;;;;13.64;57.60;97681.61;67608;1281;1016235;-61
2023/03/26 12:03:05;;;;;;;8.20;1.90;;;;;;;13.66;57.49;97678.23;67605;1281;1016402;-60
2023/03/26 12:06:10;;;;;;;5.80;1.50;;;;;;;13.59;57.38;97673.77;67601;1281;1016417;-61
2023/03/26 12:09:12;;;;;;;9.40;2.10;;;;;;;14.15;56.27;97664.75;67644;1281;1016564;-61
2023/03/26 12:12:15;;;;;;;9.00;2.40;;;;;;;14.72;54.92;97658.88;67603;1281;1019470;-60
2023/03/26 12:15:18;;;;;;;11.50;2.10;;;;;;;14.68;52.58;97662.55;67619;1281;1017131;-61
2023/03/26 12:18:20;;;;;;;8.20;2.20;;;;;;;15.08;52.82;97648.27;67654;1281;1016795;-61
2023/03/26 12:21:23;;;;;;;8.30;2.30;;;;;;;15.21;50.58;97646.20;67668;1281;1016307;-61
2023/03/26 12:24:25;;;;;;;8.30;1.90;;;;;;;15.68;51.71;97633.60;67630;1281;1016439;-60
2023/03/26 12:27:29;;;;;;;9.00;2.30;;;;;;;16.29;50.39;97636.34;67602;1281;1016437;-61
2023/03/26 12:30:33;;;;;;;7.80;1.70;;;;;;;16.23;47.73;97641.83;67628;1281;1016510;-61
2023/03/26 12:33:37;;;;;;;7.40;2.20;;;;;;;15.57;46.94;97645.71;67652;1281;1016524;-61
2023/03/26 12:36:42;;;;;;;7.20;1.90;;;;;;;15.25;47.69;97630.46;67596;1281;1016505;-61
2023/03/26 12:39:45;;;;;;;10.70;2.40;;;;;;;15.51;48.99;97623.86;67660;1281;1016769;-60
2023/03/26 12:42:47;;;;;;;8.00;2.00;;;;;;;16.49;48.03;97618.27;67651;1281;1016119;-61
2023/03/26 12:45:50;;;;;;;13.50;2.90;;;;;;;17.48;48.12;97606.06;67603;1281;1016442;-61
2023/03/26 12:48:54;;;;;;;9.40;2.50;;;;;;;18.30;46.19;97600.81;67608;1281;1017455;-61
2023/03/26 12:51:57;;;;;;;9.20;2.50;;;;;;;18.11;43.00;97603.45;67622;1281;1016469;-61
2023/03/26 12:54:59;;;;;;;11.60;3.00;;;;;;;17.73;43.69;97602.16;67627;1281;1016821;-60
2023/03/26 12:58:02;;;;;;;8.50;2.50;;;;;;;18.00;45.34;97597.08;67637;1281;1016317;-61
2023/03/26 13:01:05;;;;;;;19.30;4.00;;;;;;;18.37;44.80;97590.43;67622;1281;1016523;-60
2023/03/26 13:04:08;;;;;;;12.50;2.60;;;;;;;18.87;44.75;97594.02;67596;1281;1016492;-61
2023/03/26 13:07:12;;;;;;;12.00;2.50;;;;;;;19.24;44.45;97588.21;67599;1281;1016289;-61
2023/03/26 13:10:15;;;;;;;12.00;3.00;;;;;;;19.08;43.05;97579.23;67652;1281;1015895;-60
2023/03/26 13:13:18;;;;;;;14.60;2.90;;;;;;;18.56;42.27;97588.41;67635;1281;1016485;-61
2023/03/26 13:16:20;;;;;;;;;;;;;;;18.31;42.46;97583.33;67616;1281;1016320;-62
2023/03/26 13:19:23;;;;;;;;;;;;;;;18.24;42.13;97585.23;65069;1281;6380313;-61
2023/03/26 13:22:25;;;;;;;9.00;2.20;;;;;;;17.51;41.63;97588.88;67588;1281;1016903;-61
2023/03/26 13:25:28;;;;;;;6.90;1.70;;;;;;;17.66;41.81;97586.39;67597;1281;1016345;-61
2023/03/26 13:28:31;;;;;;;7.10;1.70;;;;;;;17.79;40.44;97582.55;67602;1281;1016104;-61
2023/03/26 13:31:33;;;;;;;7.10;1.70;;;;;;;17.57;40.39;97593.48;67626;1281;1016928;-61
2023/03/26 13:34:36;;;;;;;;;;;;;;;17.33;40.64;97577.67;67606;1281;1016242;-61
2023/03/26 13:37:39;;;;;;;12.00;2.20;;;;;;;17.65;41.85;97561.41;67612;1281;1016419;-61
2023/03/26 13:40:41;;;;;;;5.60;1.40;;;;;;;18.16;40.52;97545.35;67628;1281;1016258;-61
2023/03/26 13:43:44;;;;;;;4.80;1.30;;;;;;;18.43;41.13;97549.27;67652;1281;1016626;-61
2023/03/26 13:46:46;;;;;;;8.70;2.50;;;;;;;18.74;41.69;97553.36;67603;1281;1018352;-61
2023/03/26 13:49:49;;;;;;;;;;;;;;;19.11;41.04;97554.96;67603;1281;1016893;-61
2023/03/26 13:52:54;;;;;;;10.70;2.20;;;;;;;18.75;41.15;97553.95;67593;1281;1016729;-61
2023/03/26 13:55:56;;;;;;;15.60;2.90;;;;;;;18.28;41.75;97551.63;67630;1281;1016411;-61